AirNav   Everest Fuels
 
 696 users online  

1M8 Myricks Airport
Berkley, Massachusetts, USA

GOING TO BERKLEY?


FAA INFORMATION EFFECTIVE 21 MAY 2020

Location

FAA Identifier: 1M8
Lat/Long: 41-50-20.6000N 071-01-35.3000W
41-50.343333N 071-01.588333W
41.8390556,-71.0264722
(estimated)
Elevation: 73 ft. / 22.3 m (surveyed)
Variation: 16W (1985)
From city: 3 miles SE of BERKLEY, MA
Time zone: UTC -4 (UTC -5 during Standard Time)
Zip code: 02779

Airport Operations

Airport use: Open to the public
Activation date: 02/1946
Control tower: no
ARTCC: BOSTON CENTER
FSS: BRIDGEPORT FLIGHT SERVICE STATION
NOTAMs facility: BDR (NOTAM-D service available)
Attendance: DAYLIGHT HOURS
Wind indicator: yes
Segmented circle: no

Airport Communications

CTAF: 122.9
WX ASOS at TAN (2.2 nm N): 132.675 (508-824-5005)
WX ASOS at EWB (10 nm S): 126.85 (508-992-0195)
WX ASOS at PYM (14 nm E): 135.625 (508-746-8003)
WX ASOS at PVD (19 nm W): 124.2 (401-734-2818)

Nearby radio navigation aids

VOR radial/distance  VOR name  Freq  Var
PVDr083/19.3PROVIDENCE VOR/DME115.6014W
BOSr199/31.1BOSTON VOR/DME112.7016W
MVYr340/32.4MARTHAS VINEYARD VOR/DME114.5015W
PUTr115/37.2PUTNAM VOR/DME117.4014W

 
NDB name  Hdg/Dist  Freq  Var  ID
PROVINCETOWN265/38.438916WPVC .--. ...- -.-.

Airport Services

Fuel available: 100LL
Parking: tiedowns
Airframe service: MINOR
Powerplant service: MINOR

Runway Information

Runway 9/27

Dimensions: 2466 x 50 ft. / 752 x 15 m
Surface: turf, in good condition
RUNWAY 9  RUNWAY 27
Latitude: 41-50.286795N41-50.398608N
Longitude: 071-01.848488W071-01.326457W
Elevation: 65.2 ft.72.9 ft.
Traffic pattern: leftleft
Obstructions: 80 ft. tree, 400 ft. from runway, 130 ft. right of centerline, 5:1 slope to clear67 ft. trees, 200 ft. from runway, 125 ft. both sides of centerline, 3:1 slope to clear

Airport Ownership and Management from official FAA records

Ownership: Privately-owned
Owner: MYRICKS AIRFIELD FOUNDATION
168 PADELFORD STREET
BERKLEY, MA 02779
Phone 508-822-2457
Manager: JEAN HARLEY
168 PADELFORD STREET
BERKLEY, MA 02779
Phone 508-822-2457
JEAN.HARLEY@COMCAST.NET

Airport Operational Statistics

Aircraft based on the field: 2
Single engine airplanes: 2
    
Aircraft operations: avg 59/week *
65% local general aviation
23% military
13% transient general aviation
* for 12-month period ending 05 June 2019

Additional Remarks

TREES NORTH.
AERIAL BANNER PICKUP & DROP OPNS ON AND INVOF ARPT.
WILDLIFE ON AND INVOF ARPT.
FOR CD CTC PROVIDENCE APCH AT 401-738-8945, WHEN APCH CLSD CTC BOSTON ARTCC AT 603-879-6859.

Instrument Procedures

There are no published instrument procedures at 1M8.

Some nearby airports with instrument procedures:

KTAN - Taunton Municipal Airport - King Field (2 nm N)
KEWB - New Bedford Regional Airport (10 nm S)
1B9 - Mansfield Municipal Airport (12 nm NW)
KPYM - Plymouth Municipal Airport (14 nm E)
KPVD - Theodore Francis Green State Airport (19 nm W)
 
Loc | Ops | Rwys | IFR | FBO | Links
Com | Nav | Svcs | Stats | Notes
Area around 1M8 (Myricks Airport)
 
Road maps at: MapQuest Bing Google
 
Aerial photo
WARNING: Photo may not be current or correct
Aerial photo of 1M8 (Myricks Airport)
Photo by Barry Turner
Photo taken 01-Oct-2017
looking west.

Do you have a better or more recent aerial photo of Myricks Airport that you would like to share? If so, please send us your photo.

 
Sectional chart

 
Airport distance calculator
Flying to Myricks Airport? Find the distance to fly.

From to 1M8

Sunrise and sunset
Times for 29-May-2020
 Local
(UTC-4)
 Zulu
(UTC)
Morning civil twilight04:4008:40
Sunrise05:1409:14
Sunset20:1000:10
Evening civil twilight20:4300:43

Current date and time
Zulu (UTC)  30-May-2020 03:38:17
Local (UTC-4)  29-May-2020 23:38:17
 
METAR
KTAN 
3nm N 
300252Z AUTO 21011G21KT 3SM BR OVC003 20/18 A2992 RMK AO2 SLP130 60001 T02000183 58009
KEWB 
10nm S 
300253Z AUTO 22014G22KT 4SM BR OVC003 18/18 A2993 RMK AO2 PK WND 22027/0217 SLP135 60001 T01830183 58010
KPYM 
14nm E 
300252Z AUTO 22010G17KT 4SM BR OVC003 20/19 A2993 RMK AO2 SLP133 60002 T02000194 58008
KPVD 
20nm W 
300251Z 20013G19KT 3SM -DZ BR OVC005 19/19 A2992 RMK AO2 SLP132 DZE19B40 P0000 60000 T01940189 58010
TAF
KPVD 
20nm W 
292036Z 2921/3018 21011G19KT P6SM SCT010 OVC015 FM292300 20011G20KT 4SM BR OVC010 FM300400 20010KT 2SM BR VCSH OVC008 FM301200 21007KT 4SM BR OVC008 FM301500 23006KT P6SM BKN020 FM301700 23007KT P6SM VCSH BKN050
NOTAMs
Click for the latest NOTAMs
NOTAMs are issued by the DoD/FAA and will open in a separate window not controlled by AirNav.

 

 
 

FBO, Fuel Providers, and Aircraft Ground Support

  
 Business Name 
 
 Contact 
 
 Services / Description 
 
Fuel Prices
 
Comments
  
Myricks Airport 502-822-2457
no information available

If you are affiliated with Myricks Airport and would like to show here your services, contact info, web link, logo, and more, click here
100LL
SS $4.50 
 Updated 03-Nov-2019
 
   write
SS=Self service
Update Fuel Prices
 

Would you like to see your business listed on this page?

 If your business provides an interesting product or service to pilots, flight crews, aircraft, or users of the Myricks Airport, you should consider listing it here.  To start the listing process, click on the button below
 
Add a business
 

Other Pages about Myricks Airport

Update a link
 
Copyright © AirNav, LLC. All rights reserved. Privacy Policy  Contact